Latest Weather Observations for Loxton

IDS60801

Issued at 8:01 pm CST Monday 30 May 2016 (issued every 30 minutes, with the page automatically refreshed every 10 minutes)

About weather observations | Map of weather stations | Latest weather observations for SA | Other Formats
Station Details ID: 024024 Name: LOXTON RESEARCH CENTRE Lat: -34.44 Lon: 140.60 Height: 30.1 m
Data from the previous 72 hours. | See also: Recent months at Loxton
Date/Time
CST
Temp
°C
App
Temp
°C
Dew
Point
Rel
Hum
%
Delta-T
°C
Wind Press
QNH
hPa
Press
MSL
hPa
Rain
since 9 am
mm
Dir
 
Spd
km/h
Gust
km/h
Spd
kts
Gust
kts
30/08:00pm 13.8 10.2 6.7 62 3.4 ENE 15 20 8 11 1023.6 1023.6 0.0
30/07:30pm 14.3 10.3 6.6 60 3.7 ENE 17 24 9 13 1023.2 1023.2 0.0
30/07:00pm 14.6 10.3 7.2 61 3.6 ENE 19 26 10 14 1022.8 1022.8 0.0
30/06:30pm 14.6 10.9 8.0 64 3.3 ENE 17 22 9 12 1022.7 1022.7 0.0
30/06:00pm 15.4 11.4 6.8 56 4.2 ENE 17 24 9 13 1022.6 1022.6 0.0
30/05:30pm 15.9 12.6 6.2 52 4.7 ENE 13 19 7 10 1022.2 1022.2 0.0
30/05:00pm 16.5 12.6 5.4 48 5.3 NE 15 20 8 11 1021.7 1021.7 0.0
30/04:30pm 16.9 12.6 5.2 46 5.6 NE 17 24 9 13 1021.3 1021.3 0.0
30/04:00pm 17.1 12.9 5.5 46 5.6 NE 17 24 9 13 1021.2 1021.2 0.0
30/03:30pm 17.3 12.8 6.0 47 5.5 NNE 19 28 10 15 1021.1 1021.1 0.0
30/03:00pm 17.3 12.6 6.0 47 5.5 NE 20 30 11 16 1021.0 1021.0 0.0
30/02:30pm 17.7 12.6 6.0 46 5.7 NE 22 32 12 17 1020.9 1020.9 0.0
30/02:00pm 17.4 12.9 6.1 47 5.5 NNE 19 24 10 13 1021.1 1021.1 0.0
30/01:30pm 17.0 12.4 6.4 49 5.2 NNE 20 30 11 16 1021.1 1021.1 0.0
30/01:00pm 17.5 12.7 5.8 46 5.7 NNE 20 32 11 17 1021.4 1021.4 0.0
30/12:30pm 17.1 12.5 6.5 49 5.2 NNE 20 28 11 15 1022.0 1022.0 0.0
30/12:00pm 17.0 12.6 6.4 49 5.2 NNE 19 26 10 14 1022.2 1022.2 0.0
30/11:30am 16.4 12.3 6.3 51 4.9 NNE 17 24 9 13 1022.7 1022.7 0.0
30/11:00am 15.4 11.8 6.8 56 4.2 NNE 15 22 8 12 1023.3 1023.3 0.0
30/10:30am 13.8 10.0 7.5 66 3.1 NNE 17 24 9 13 1023.3 1023.3 0.0
30/10:00am 12.9 9.2 7.8 71 2.5 NE 17 24 9 13 1023.1 1023.1 0.0
30/09:30am 11.1 7.2 7.3 77 1.8 NE 17 20 9 11 1023.4 1023.4 0.0
30/09:00am 10.3 6.4 7.1 80 1.5 NE 17 22 9 12 1023.4 1023.4 0.2
30/08:30am 9.2 5.6 6.6 84 1.2 ENE 15 22 8 12 1023.2 1023.2 0.2
30/08:00am 8.1 4.0 6.1 87 0.9 ENE 17 22 9 12 1022.7 1022.7 0.2
30/07:30am 7.4 4.0 5.8 90 0.7 ENE 13 20 7 11 1022.6 1022.6 0.2
30/07:00am 7.1 3.6 5.5 89 0.7 ENE 13 17 7 9 1022.3 1022.3 0.2
30/06:30am 7.2 3.4 5.6 89 0.7 ENE 15 19 8 10 1022.1 1022.1 0.2
30/06:00am 7.1 3.6 5.5 89 0.7 ENE 13 20 7 11 1021.8 1021.8 0.2
30/05:30am 7.2 4.1 5.6 89 0.7 ENE 11 15 6 8 1021.6 1021.6 0.2
30/05:00am 7.1 4.4 5.5 89 0.7 ENE 9 13 5 7 1021.3 1021.3 0.2
30/04:30am 7.1 4.4 5.5 89 0.7 E 9 11 5 6 1021.3 1021.3 0.2
30/04:00am 7.6 4.9 5.8 88 0.8 ENE 9 15 5 8 1021.4 1021.4 0.2
30/03:30am 7.5 4.8 5.7 88 0.8 E 9 13 5 7 1021.1 1021.1 0.2
30/03:00am 7.6 4.9 5.8 88 0.8 E 9 11 5 6 1021.2 1021.2 0.2
30/02:30am 7.7 5.0 5.7 87 0.9 ENE 9 13 5 7 1021.2 1021.2 0.2
30/02:00am 6.8 4.7 5.7 93 0.5 ENE 6 7 3 4 1021.1 1021.1 0.2
30/01:30am 6.9 4.6 5.5 91 0.6 ENE 7 9 4 5 1020.9 1020.9 0.2
30/01:00am 7.0 3.9 5.7 91 0.6 E 11 13 6 7 1020.8 1020.8 0.2
30/12:30am 7.1 4.0 5.5 89 0.7 E 11 15 6 8 1020.8 1020.8 0.2
30/12:00am 7.1 4.8 5.5 89 0.7 ENE 7 9 4 5 1021.1 1021.1 0.2
 
Date/Time
CST
Temp
°C
App
Temp
°C
Dew
Point
Rel
Hum
%
Delta-T
°C
Wind Press
QNH
hPa
Press
MSL
hPa
Rain
since 9 am
mm
Dir
 
Spd
km/h
Gust
km/h
Spd
kts
Gust
kts
29/11:30pm 7.5 4.8 5.5 87 0.9 E 9 11 5 6 1021.1 1021.1 0.2
29/11:00pm 8.1 5.4 5.7 85 1.1 ENE 9 13 5 7 1021.1 1021.1 0.2
29/10:30pm 8.7 6.0 5.6 81 1.4 ENE 9 15 5 8 1021.1 1021.1 0.2
29/10:00pm 8.3 5.6 5.4 82 1.3 ENE 9 13 5 7 1021.1 1021.1 0.2
29/09:30pm 8.3 5.5 5.2 81 1.4 ENE 9 13 5 7 1021.3 1021.3 0.2
29/09:00pm 8.2 5.0 5.0 80 1.4 E 11 13 6 7 1021.2 1021.2 0.2
29/08:30pm 8.1 4.9 5.2 82 1.3 E 11 13 6 7 1021.2 1021.2 0.2
29/08:00pm 7.6 4.8 5.1 84 1.1 ENE 9 13 5 7 1021.2 1021.2 0.2
29/07:30pm 6.7 4.3 5.3 91 0.6 E 7 9 4 5 1021.0 1021.0 0.2
29/07:00pm 7.5 5.2 5.7 88 0.8 E 7 9 4 5 1020.8 1020.8 0.2
29/06:30pm 7.8 5.6 6.0 88 0.8 E 7 7 4 4 1020.5 1020.5 0.2
29/06:00pm 9.8 7.1 5.4 74 2.0 ENE 9 9 5 5 1020.1 1020.1 0.2
29/05:30pm 10.3 7.1 5.0 69 2.4 E 11 11 6 6 1019.6 1019.6 0.2
29/05:00pm 12.4 9.5 4.7 59 3.5 ENE 9 11 5 6 1019.5 1019.5 0.2
29/04:30pm 14.2 10.3 3.6 49 4.8 ENE 13 15 7 8 1019.4 1019.4 0.2
29/04:00pm 15.0 11.4 2.7 43 5.5 NE 11 15 6 8 1019.5 1019.5 0.2
29/03:30pm 14.9 11.7 2.8 44 5.4 NE 9 13 5 7 1019.5 1019.5 0.0
29/03:00pm 15.3 12.0 2.5 42 5.7 NNE 9 13 5 7 1019.6 1019.6 0.0
29/02:30pm 15.0 11.6 3.9 47 5.1 NNE 11 17 6 9 1019.5 1019.5 0.0
29/02:00pm 14.9 10.9 3.1 45 5.3 NNE 13 19 7 10 1019.6 1019.6 0.0
29/01:30pm 14.4 11.0 5.8 56 4.1 NNE 13 17 7 9 1019.9 1019.9 0.0
29/01:00pm 13.6 9.9 6.5 62 3.4 NNE 15 20 8 11 1020.1 1020.1 0.0
29/12:30pm 12.9 9.7 6.9 67 2.9 NE 13 20 7 11 1020.5 1020.5 0.0
29/12:00pm 11.7 9.0 7.3 74 2.1 NNE 11 13 6 7 1020.9 1020.9 0.0
29/11:30am 11.5 9.1 7.1 74 2.1 NNE 9 13 5 7 1021.2 1021.2 0.0
29/11:00am 10.6 8.6 7.0 78 1.7 NNE 7 13 4 7 1021.7 1021.7 0.0
29/10:30am 9.6 7.6 7.0 84 1.2 NNE 7 9 4 5 1021.8 1021.8 0.0
29/10:00am 8.3 5.0 6.3 87 0.9 E 13 17 7 9 1021.7 1021.7 0.0
29/09:30am 6.9 4.2 5.5 91 0.6 E 9 11 5 6 1021.8 1021.8 0.0
29/09:00am 6.3 5.2 4.9 91 0.6 CALM 0 9 0 5 1021.9 1021.9 0.2
29/08:30am 5.7 4.5 4.8 94 0.4 CALM 0 0 0 0 1021.7 1021.7 0.2
29/08:00am 5.1 2.5 4.2 94 0.4 ESE 7 9 4 5 1021.1 1021.1 0.2
29/07:30am 4.3 1.6 3.6 95 0.3 SE 7 9 4 5 1021.0 1021.0 0.2
29/07:00am 3.5 0.9 3.0 97 0.2 SE 6 7 3 4 1020.6 1020.6 0.2
29/06:30am 3.6 0.4 2.9 95 0.3 ESE 9 11 5 6 1020.3 1020.3 0.2
29/06:00am 3.4 0.1 2.6 94 0.3 ESE 9 11 5 6 1020.2 1020.2 0.0
29/05:30am 4.5 1.4 3.5 93 0.4 ESE 9 11 5 6 1020.0 1020.0 0.0
29/05:00am 4.4 2.6 3.4 93 0.4 SE 2 7 1 4 1019.6 1019.6 0.0
29/04:30am 3.8 1.0 3.3 97 0.2 SE 7 9 4 5 1019.6 1019.6 0.0
29/04:00am 3.7 1.1 3.2 97 0.2 SE 6 9 3 5 1019.5 1019.5 0.0
29/03:30am 3.3 0.6 2.8 97 0.2 SE 6 7 3 4 1019.5 1019.5 0.0
29/03:00am 3.6 1.0 3.1 97 0.2 SE 6 7 3 4 1019.5 1019.5 0.0
29/02:30am 4.1 1.6 3.6 97 0.2 SE 6 7 3 4 1019.4 1019.4 0.0
29/02:00am 4.7 2.2 3.7 93 0.4 SE 6 7 3 4 1019.4 1019.4 0.0
29/01:30am 4.4 3.0 3.7 95 0.3 CALM 0 0 0 0 1019.4 1019.4 0.0
29/01:00am 4.6 3.2 3.6 93 0.4 CALM 0 0 0 0 1019.5 1019.5 0.0
29/12:30am 5.1 3.9 4.6 97 0.2 CALM 0 0 0 0 1019.7 1019.7 0.0
29/12:00am 6.0 4.8 4.8 92 0.5 CALM 0 0 0 0 1019.9 1019.9 0.0
 
Date/Time
CST
Temp
°C
App
Temp
°C
Dew
Point
Rel
Hum
%
Delta-T
°C
Wind Press
QNH
hPa
Press
MSL
hPa
Rain
since 9 am
mm
Dir
 
Spd
km/h
Gust
km/h
Spd
kts
Gust
kts
28/11:30pm 6.3 5.3 5.6 95 0.3 CALM 0 0 0 0 1019.9 1019.9 0.0
28/11:00pm 7.1 6.2 6.0 93 0.5 CALM 0 0 0 0 1019.8 1019.8 0.0
28/10:30pm 8.1 7.3 6.3 88 0.8 CALM 0 0 0 0 1019.7 1019.7 0.0
28/10:00pm 8.9 6.8 5.6 80 1.5 S 6 9 3 5 1019.6 1019.6 0.0
28/09:30pm 9.7 6.9 5.3 74 2.0 SSW 9 11 5 6 1019.6 1019.6 0.0
28/09:00pm 10.2 7.5 5.4 72 2.2 SSW 9 11 5 6 1019.5 1019.5 0.0
28/08:30pm 10.8 8.1 5.6 70 2.4 SSW 9 11 5 6 1019.4 1019.4 0.0
28/08:00pm 10.8 8.2 6.3 74 2.1 SSW 9 11 5 6 1019.4 1019.4 0.0
28/07:30pm 11.3 8.8 6.4 72 2.3 SW 9 11 5 6 1019.0 1019.0 0.0
28/07:00pm 12.2 9.2 6.0 66 2.9 SSW 11 15 6 8 1018.5 1018.5 0.0
28/06:30pm 12.0 9.0 6.0 66 2.8 SSW 11 13 6 7 1018.2 1018.2 0.0
28/06:00pm 12.4 9.4 6.0 65 3.0 SSW 11 15 6 8 1017.9 1017.9 0.0
28/05:30pm 12.7 9.6 5.6 62 3.3 SSW 11 15 6 8 1017.3 1017.3 0.0
28/05:00pm 14.1 10.5 4.9 54 4.3 S 13 20 7 11 1017.0 1017.0 0.0
28/04:30pm 14.4 11.7 5.5 55 4.2 SSW 9 15 5 8 1016.7 1016.7 0.0
28/04:00pm 14.6 10.7 5.5 54 4.3 S 15 22 8 12 1016.5 1016.5 0.0
28/03:30pm 14.7 11.3 5.7 55 4.3 SSW 13 22 7 12 1016.4 1016.4 0.0
28/03:00pm 15.5 11.1 4.6 48 5.1 SSW 17 24 9 13 1016.1 1016.1 0.0
28/02:30pm 14.9 10.5 4.9 51 4.7 S 17 26 9 14 1016.0 1016.0 0.0
28/02:00pm 15.0 10.8 5.5 53 4.5 S 17 20 9 11 1015.9 1015.9 0.0
28/01:30pm 15.4 11.1 5.3 51 4.8 S 17 26 9 14 1015.8 1015.8 0.0
28/01:00pm 15.3 11.6 6.2 54 4.4 S 15 26 8 14 1015.7 1015.7 0.0
28/12:30pm 14.9 10.4 6.9 58 3.9 SSE 20 28 11 15 1015.7 1015.7 0.0
28/12:00pm 14.6 11.3 8.2 65 3.2 S 15 24 8 13 1015.8 1015.8 0.0
28/11:30am 13.7 10.5 8.3 70 2.7 S 15 26 8 14 1015.9 1015.9 0.0
28/11:00am 12.7 9.1 8.5 75 2.1 S 17 26 9 14 1016.1 1016.1 0.0
28/10:30am 11.4 8.5 8.3 81 1.5 S 13 20 7 11 1016.0 1016.0 0.0
28/10:00am 10.6 6.9 8.1 84 1.2 S 17 24 9 13 1015.6 1015.6 0.0
28/09:30am 9.8 6.1 7.9 88 0.9 S 17 28 9 15 1015.2 1015.2 0.0
28/09:00am 9.0 4.7 7.7 91 0.6 S 20 28 11 15 1014.8 1014.8 2.4
28/08:30am 8.6 4.3 8.0 96 0.3 S 20 28 11 15 1014.2 1014.2 2.4
28/08:00am 8.6 5.1 7.3 91 0.6 SSW 15 20 8 11 1013.2 1013.2 2.4
28/07:30am 8.0 4.8 6.7 91 0.6 SW 13 17 7 9 1012.8 1012.8 2.4
28/07:00am 8.6 5.8 7.1 90 0.7 WSW 11 17 6 9 1012.0 1012.0 2.4
28/06:30am 8.4 5.6 7.1 91 0.6 W 11 15 6 8 1011.8 1011.8 2.4
28/06:00am 8.3 5.1 7.0 91 0.6 WNW 13 17 7 9 1011.2 1011.2 2.4
28/05:30am 8.5 5.8 7.2 91 0.6 WNW 11 17 6 9 1010.9 1010.9 2.4
28/05:00am 8.4 5.3 7.1 91 0.6 WNW 13 17 7 9 1010.5 1010.5 2.4
28/04:30am 8.6 6.2 7.1 90 0.7 WNW 9 13 5 7 1010.2 1010.2 2.4
28/04:00am 9.0 6.6 6.9 87 1.0 WNW 9 13 5 7 1010.0 1010.0 2.4
28/03:30am 8.7 5.9 7.0 89 0.8 WNW 11 13 6 7 1009.8 1009.8 2.4
28/03:00am 9.1 5.9 6.7 85 1.1 WNW 13 15 7 8 1009.5 1009.5 2.4
28/02:30am 9.3 6.1 7.0 85 1.1 W 13 15 7 8 1009.5 1009.5 2.4
28/02:00am 10.0 6.8 6.8 80 1.5 W 13 19 7 10 1009.4 1009.4 2.4
28/01:30am 10.2 6.2 6.6 78 1.7 WSW 17 26 9 14 1009.2 1009.2 2.4
28/01:00am 10.3 6.3 6.7 78 1.7 WSW 17 26 9 14 1009.1 1009.1 2.4
28/12:30am 10.3 5.9 6.7 78 1.7 WSW 19 30 10 16 1008.9 1008.9 2.4
28/12:00am 10.4 6.0 6.6 77 1.8 W 19 30 10 16 1008.9 1008.9 2.4
 
Date/Time
CST
Temp
°C
App
Temp
°C
Dew
Point
Rel
Hum
%
Delta-T
°C
Wind Press
QNH
hPa
Press
MSL
hPa
Rain
since 9 am
mm
Dir
 
Spd
km/h
Gust
km/h
Spd
kts
Gust
kts
27/11:30pm 10.4 5.4 6.6 77 1.8 W 22 32 12 17 1008.5 1008.5 2.4
27/11:00pm 10.1 6.2 6.9 80 1.5 W 17 24 9 13 1008.4 1008.4 2.4
27/10:30pm 10.3 5.7 6.7 78 1.7 W 20 32 11 17 1008.3 1008.3 2.4
27/10:00pm 10.1 6.6 7.2 82 1.4 W 15 22 8 12 1008.1 1008.1 2.4
27/09:30pm 9.9 6.4 7.4 84 1.2 WNW 15 22 8 12 1008.1 1008.1 2.4
27/09:00pm 10.2 6.2 6.8 79 1.6 W 17 24 9 13 1008.3 1008.3 2.4
27/08:30pm 10.1 6.1 6.5 78 1.7 WNW 17 26 9 14 1008.1 1008.1 2.4

Other Formats:

Comma delimited format used in spreadsheet applications
http://www.bom.gov.au/fwo/IDS60801/IDS60801.94682.axf

JavaScript Object Notation format (JSON) in row-major order
http://www.bom.gov.au/fwo/IDS60801/IDS60801.94682.json